createdAt,value
2018-07-16T00:00:28.826Z,2.90
2018-07-16T00:01:28.830Z,2.10
2018-07-16T00:02:28.881Z,2.40
2018-07-16T00:03:28.852Z,2.30
2018-07-16T00:04:28.868Z,2.50
2018-07-16T00:05:28.871Z,2.50
2018-07-16T00:06:28.899Z,2.60
2018-07-16T00:07:28.911Z,2.20
2018-07-16T00:08:28.929Z,2.70
2018-07-16T00:09:28.932Z,2.50
2018-07-16T00:10:28.969Z,2.70
2018-07-16T00:11:28.946Z,2.20
2018-07-16T00:12:28.986Z,2.20
2018-07-16T00:13:28.998Z,2.30
2018-07-16T00:14:29.010Z,2.50
2018-07-16T00:15:28.998Z,2.50
2018-07-16T00:16:29.007Z,2.10
2018-07-16T00:17:29.018Z,3.20
2018-07-16T00:18:29.034Z,2.40
2018-07-16T00:19:29.046Z,2.30
2018-07-16T00:20:29.063Z,2.20
2018-07-16T00:21:29.080Z,2.50
2018-07-16T00:22:29.084Z,2.30
2018-07-16T00:23:29.095Z,2.20
2018-07-16T00:24:29.110Z,2.40
2018-07-16T00:25:29.127Z,2.10
2018-07-16T00:26:29.132Z,2.40
2018-07-16T00:27:29.145Z,2.50
2018-07-16T00:28:29.164Z,2.60
2018-07-16T00:29:29.171Z,2.30
2018-07-16T00:30:29.182Z,2.30
2018-07-16T00:31:29.190Z,2.70
2018-07-16T00:32:29.210Z,2.40
2018-07-16T00:33:29.215Z,2.70
2018-07-16T00:34:29.241Z,2.20
2018-07-16T00:35:29.243Z,2.60
2018-07-16T00:36:29.253Z,2.60
2018-07-16T00:37:29.272Z,2.80
2018-07-16T00:38:29.281Z,2.60
2018-07-16T00:39:29.301Z,2.50
2018-07-16T00:40:29.311Z,2.50
2018-07-16T00:41:29.317Z,2.10
2018-07-16T00:42:29.330Z,2.40
2018-07-16T00:43:29.336Z,2.40
2018-07-16T00:44:29.426Z,2.50
2018-07-16T00:45:29.362Z,2.60
2018-07-16T00:46:29.374Z,2.40
2018-07-16T00:47:29.393Z,2.70
2018-07-16T00:48:29.399Z,2.60
2018-07-16T00:49:29.414Z,2.30
2018-07-16T00:50:29.429Z,2.50
2018-07-16T00:51:29.438Z,2.90
2018-07-16T00:52:29.440Z,2.40
2018-07-16T00:53:29.458Z,2.40
2018-07-16T00:54:29.471Z,2.60
2018-07-16T00:55:29.485Z,2.30
2018-07-16T00:56:29.547Z,2.30
2018-07-16T00:57:29.518Z,2.10
2018-07-16T00:58:29.528Z,2.20
2018-07-16T00:59:29.546Z,2.20
2018-07-16T01:00:29.551Z,2.20
2018-07-16T01:01:29.555Z,2.30
2018-07-16T01:02:29.573Z,2.50
2018-07-16T01:03:29.585Z,2.50
2018-07-16T01:04:29.594Z,3.00
2018-07-16T01:05:29.612Z,2.50
2018-07-16T01:06:29.615Z,2.60
2018-07-16T01:07:29.631Z,2.70
2018-07-16T01:08:29.641Z,2.30
2018-07-16T01:09:29.670Z,2.50
2018-07-16T01:10:29.664Z,2.40
2018-07-16T01:11:29.674Z,2.90
2018-07-16T01:12:29.686Z,2.00
2018-07-16T01:13:29.702Z,2.10
2018-07-16T01:14:29.717Z,2.60
2018-07-16T01:15:29.724Z,2.40
2018-07-16T01:16:29.744Z,2.60
2018-07-16T01:17:29.752Z,2.90
2018-07-16T01:18:29.752Z,2.80
2018-07-16T01:19:29.774Z,2.40
2018-07-16T01:20:29.788Z,2.50
2018-07-16T01:21:29.793Z,2.50
2018-07-16T01:22:29.825Z,2.70
2018-07-16T01:23:29.820Z,2.80
2018-07-16T01:24:29.835Z,2.70
2018-07-16T01:25:29.843Z,2.50
2018-07-16T01:26:29.849Z,2.60
2018-07-16T01:27:29.867Z,2.80
2018-07-16T01:28:29.934Z,2.20
2018-07-16T01:29:29.890Z,2.70
2018-07-16T01:30:29.905Z,3.00
2018-07-16T01:31:29.912Z,2.60
2018-07-16T01:33:29.938Z,2.90
2018-07-16T01:34:29.957Z,3.20
2018-07-16T01:35:29.963Z,3.00
2018-07-16T01:36:29.972Z,2.70
2018-07-16T01:37:29.985Z,2.90
2018-07-16T01:38:30.042Z,3.10
2018-07-16T01:39:30.012Z,2.60
2018-07-16T01:40:30.022Z,3.20
2018-07-16T01:41:30.035Z,3.10
2018-07-16T01:42:30.042Z,2.60
2018-07-16T01:43:30.058Z,3.00
2018-07-16T01:44:30.068Z,3.20
2018-07-16T01:45:30.082Z,3.30
2018-07-16T01:46:30.098Z,3.00
2018-07-16T01:47:30.112Z,2.70
2018-07-16T01:48:30.116Z,2.80
2018-07-16T01:49:30.130Z,3.20
2018-07-16T01:50:30.143Z,3.20
2018-07-16T01:51:30.164Z,3.00
2018-07-16T01:52:30.168Z,3.20
2018-07-16T01:53:30.173Z,3.50
2018-07-16T01:54:30.188Z,3.20
2018-07-16T01:55:30.203Z,3.10
2018-07-16T01:56:30.211Z,3.10
2018-07-16T01:57:30.234Z,3.40
2018-07-16T01:58:30.243Z,3.50
2018-07-16T01:59:30.247Z,3.40
2018-07-16T02:00:30.254Z,3.20
2018-07-16T02:01:30.267Z,3.50
2018-07-16T02:02:30.276Z,3.70
2018-07-16T02:03:30.291Z,3.60
2018-07-16T02:04:30.301Z,3.10
2018-07-16T02:05:30.312Z,3.30
2018-07-16T02:06:30.322Z,3.00
2018-07-16T02:07:30.331Z,3.40
2018-07-16T02:08:30.347Z,3.40
2018-07-16T02:09:30.378Z,2.80
2018-07-16T02:10:30.399Z,2.90
2018-07-16T02:11:30.396Z,3.10
2018-07-16T02:12:30.429Z,3.20
2018-07-16T02:13:30.428Z,3.40
2018-07-16T02:14:30.434Z,3.10
2018-07-16T02:15:30.433Z,3.40
2018-07-16T02:16:30.447Z,3.10
2018-07-16T02:17:30.456Z,3.30
2018-07-16T02:18:30.468Z,3.40
2018-07-16T02:19:30.506Z,3.30
2018-07-16T02:20:30.519Z,3.50
2018-07-16T02:21:30.520Z,3.50
2018-07-16T02:22:30.526Z,3.60
2018-07-16T02:23:30.533Z,3.30
2018-07-16T02:24:30.557Z,3.10
2018-07-16T02:25:30.553Z,3.20
2018-07-16T02:26:30.562Z,3.30
2018-07-16T02:27:30.574Z,3.30
2018-07-16T02:28:30.574Z,3.40
2018-07-16T02:29:30.591Z,3.50
2018-07-16T02:30:30.606Z,3.20
2018-07-16T02:31:30.635Z,3.10
2018-07-16T02:32:30.640Z,3.40
2018-07-16T02:33:30.649Z,3.20
2018-07-16T02:34:30.657Z,3.60
2018-07-16T02:35:30.671Z,3.20
2018-07-16T02:36:30.678Z,3.40
2018-07-16T02:37:30.713Z,3.70
2018-07-16T02:38:30.704Z,3.30
2018-07-16T02:39:30.712Z,3.40
2018-07-16T02:40:30.725Z,4.00
2018-07-16T02:41:30.758Z,3.80
2018-07-16T02:42:30.761Z,3.60
2018-07-16T02:43:30.766Z,3.70
2018-07-16T02:44:30.772Z,3.30
2018-07-16T02:45:30.780Z,3.60
2018-07-16T02:46:30.846Z,3.60
2018-07-16T02:47:30.808Z,3.70
2018-07-16T02:48:30.817Z,3.60
2018-07-16T02:49:30.827Z,3.20
2018-07-16T02:50:30.849Z,3.90
2018-07-16T02:51:30.845Z,3.60
2018-07-16T02:52:30.857Z,3.50
2018-07-16T02:53:30.872Z,3.90
2018-07-16T02:54:30.880Z,3.90
2018-07-16T02:55:30.900Z,3.50
2018-07-16T02:56:31.082Z,3.80
2018-07-16T02:57:30.922Z,4.10
2018-07-16T02:58:30.940Z,3.20
2018-07-16T02:59:30.947Z,3.60
2018-07-16T03:00:30.957Z,3.80
2018-07-16T03:01:30.965Z,3.70
2018-07-16T03:02:30.989Z,3.40
2018-07-16T03:03:30.989Z,3.50
2018-07-16T03:04:30.998Z,3.30
2018-07-16T03:05:31.012Z,3.40
2018-07-16T03:06:31.023Z,3.60
2018-07-16T03:07:31.036Z,3.40
2018-07-16T03:08:31.049Z,3.60
2018-07-16T03:09:31.064Z,3.70
2018-07-16T03:10:31.078Z,3.60
2018-07-16T03:11:31.083Z,3.60
2018-07-16T03:12:31.092Z,3.70
2018-07-16T03:13:31.101Z,3.90
2018-07-16T03:14:31.114Z,3.50
2018-07-16T03:15:31.122Z,3.60
2018-07-16T03:16:31.137Z,3.30
2018-07-16T03:17:31.147Z,3.60
2018-07-16T03:18:31.171Z,4.20
2018-07-16T03:19:31.175Z,4.10
2018-07-16T03:20:31.189Z,3.60
2018-07-16T03:21:31.194Z,4.00
2018-07-16T03:22:31.203Z,4.10
2018-07-16T03:23:31.218Z,4.20
2018-07-16T03:24:31.227Z,4.10
2018-07-16T03:25:31.244Z,4.00
2018-07-16T03:26:31.255Z,4.00
2018-07-16T03:27:31.264Z,4.20
2018-07-16T03:28:31.270Z,4.40
2018-07-16T03:29:31.288Z,4.20
2018-07-16T03:30:31.296Z,4.40
2018-07-16T03:31:31.309Z,3.90
2018-07-16T03:32:31.318Z,4.20
2018-07-16T03:33:31.331Z,3.60
2018-07-16T03:34:31.339Z,4.10
2018-07-16T03:35:31.356Z,4.50
2018-07-16T03:36:31.367Z,3.90
2018-07-16T03:38:31.392Z,4.40
2018-07-16T03:39:31.400Z,4.30
2018-07-16T03:40:31.408Z,4.20
2018-07-16T03:41:31.424Z,5.20
2018-07-16T03:42:31.429Z,4.40
2018-07-16T03:43:31.445Z,4.50
2018-07-16T03:44:31.454Z,4.10
2018-07-16T03:45:31.467Z,5.00
2018-07-16T03:46:31.477Z,4.10
2018-07-16T03:47:31.491Z,4.40
2018-07-16T03:48:31.502Z,4.10
2018-07-16T03:49:31.513Z,4.90
2018-07-16T03:50:31.519Z,4.70
2018-07-16T03:51:31.529Z,4.60
2018-07-16T03:52:31.553Z,4.30
2018-07-16T03:53:31.561Z,4.50
2018-07-16T03:54:31.747Z,4.40
2018-07-16T03:55:31.580Z,4.70
2018-07-16T03:56:31.593Z,4.80
2018-07-16T03:57:31.604Z,4.80
2018-07-16T03:58:31.614Z,4.60
2018-07-16T03:59:31.636Z,5.10
2018-07-16T04:00:31.641Z,4.90
2018-07-16T04:01:31.741Z,4.80
2018-07-16T04:02:31.658Z,5.00
2018-07-16T04:03:31.671Z,5.10
2018-07-16T04:04:31.686Z,5.10
2018-07-16T04:05:31.697Z,5.50
2018-07-16T04:06:31.707Z,4.70
2018-07-16T04:07:31.719Z,4.80
2018-07-16T04:08:31.731Z,4.80
2018-07-16T04:09:31.738Z,5.00
2018-07-16T04:10:31.753Z,4.90
2018-07-16T04:11:31.767Z,5.00
2018-07-16T04:12:31.773Z,5.30
2018-07-16T04:13:31.786Z,5.00
2018-07-16T04:14:31.799Z,5.20
2018-07-16T04:15:31.813Z,4.30
2018-07-16T04:16:31.828Z,4.50
2018-07-16T04:17:31.831Z,5.10
2018-07-16T04:18:31.850Z,4.90
2018-07-16T04:19:31.860Z,5.00
2018-07-16T04:20:31.866Z,4.70
2018-07-16T04:21:31.880Z,4.70
2018-07-16T04:22:31.892Z,5.40
2018-07-16T04:23:31.900Z,6.60
2018-07-16T04:24:31.906Z,5.30
2018-07-16T04:25:31.928Z,4.60
2018-07-16T04:26:31.943Z,4.80
2018-07-16T04:27:31.951Z,4.40
2018-07-16T04:28:31.965Z,4.80
2018-07-16T04:29:31.967Z,4.90
2018-07-16T04:30:31.979Z,4.80
2018-07-16T04:31:31.994Z,4.50
2018-07-16T04:32:32.004Z,4.80
2018-07-16T04:33:32.016Z,4.50
2018-07-16T04:34:32.024Z,4.60
2018-07-16T04:35:32.040Z,4.60
2018-07-16T04:36:32.052Z,4.70
2018-07-16T04:37:32.065Z,4.50
2018-07-16T04:38:32.074Z,5.40
2018-07-16T04:39:32.080Z,5.10
2018-07-16T04:40:32.120Z,4.80
2018-07-16T04:41:32.113Z,4.20
2018-07-16T04:42:32.144Z,4.50
2018-07-16T04:43:32.134Z,4.80
2018-07-16T04:44:32.140Z,4.10
2018-07-16T04:45:32.154Z,7.60
2018-07-16T04:46:32.166Z,4.90
2018-07-16T04:47:32.180Z,4.40
2018-07-16T04:48:32.192Z,5.70
2018-07-16T04:49:32.199Z,4.90
2018-07-16T04:50:32.211Z,4.70
2018-07-16T04:51:32.221Z,4.90
2018-07-16T04:52:32.234Z,5.00
2018-07-16T04:53:32.251Z,4.80
2018-07-16T04:54:32.260Z,5.00
2018-07-16T04:55:32.271Z,4.90
2018-07-16T04:56:32.285Z,4.80
2018-07-16T04:57:32.304Z,7.80
2018-07-16T04:58:32.300Z,4.40
2018-07-16T04:59:32.319Z,4.60
2018-07-16T05:00:32.330Z,4.60
2018-07-16T05:01:32.348Z,4.80
2018-07-16T05:02:32.361Z,4.10
2018-07-16T05:03:32.368Z,4.70
2018-07-16T05:04:32.381Z,4.70
2018-07-16T05:05:32.389Z,5.40
2018-07-16T05:06:32.400Z,5.20
2018-07-16T05:07:32.418Z,5.00
2018-07-16T05:08:32.423Z,4.80
2018-07-16T05:09:32.440Z,4.50
2018-07-16T05:10:32.448Z,4.80
2018-07-16T05:11:32.468Z,5.00
2018-07-16T05:12:32.475Z,4.50
2018-07-16T05:13:32.489Z,4.50
2018-07-16T05:14:32.527Z,5.20
2018-07-16T05:15:32.506Z,4.50
2018-07-16T05:16:32.521Z,4.90
2018-07-16T05:17:32.538Z,4.90
2018-07-16T05:18:32.839Z,4.70
2018-07-16T05:19:32.557Z,4.40
2018-07-16T05:20:32.568Z,4.80
2018-07-16T05:21:32.574Z,4.20
2018-07-16T05:22:32.582Z,4.80
2018-07-16T05:23:32.612Z,5.50
2018-07-16T05:24:32.626Z,4.30
2018-07-16T05:25:32.629Z,4.80
2018-07-16T05:26:32.640Z,4.70
2018-07-16T05:27:32.648Z,4.70
2018-07-16T05:28:32.657Z,4.70
2018-07-16T05:29:32.680Z,5.30
2018-07-16T05:30:32.687Z,5.20
2018-07-16T05:31:32.737Z,4.40
2018-07-16T05:32:32.844Z,5.30
2018-07-16T05:33:32.735Z,4.80
2018-07-16T05:34:32.733Z,7.60
2018-07-16T05:35:32.748Z,5.80
2018-07-16T05:36:32.757Z,4.80
2018-07-16T05:38:32.777Z,4.80
2018-07-16T05:39:32.806Z,4.50
2018-07-16T05:40:32.804Z,4.90
2018-07-16T05:41:32.818Z,4.10
2018-07-16T05:42:32.826Z,4.20
2018-07-16T05:43:32.855Z,4.40
2018-07-16T05:44:32.859Z,4.40
2018-07-16T05:45:32.874Z,4.10
2018-07-16T05:46:32.884Z,4.00
2018-07-16T05:47:32.884Z,4.20
2018-07-16T05:48:32.926Z,4.20
2018-07-16T05:49:32.919Z,3.90
2018-07-16T05:50:32.925Z,3.70
2018-07-16T05:51:32.940Z,4.20
2018-07-16T05:52:32.957Z,4.60
2018-07-16T05:53:32.963Z,4.00
2018-07-16T05:54:32.980Z,4.00
2018-07-16T05:55:32.993Z,3.70
2018-07-16T05:56:33.000Z,4.30
2018-07-16T05:57:33.015Z,4.20
2018-07-16T05:58:33.027Z,3.90
2018-07-16T05:59:33.042Z,4.00
2018-07-16T06:00:33.047Z,4.00
2018-07-16T06:01:33.066Z,4.00
2018-07-16T06:02:33.075Z,4.40
2018-07-16T06:03:33.097Z,4.40
2018-07-16T06:04:33.102Z,3.50
2018-07-16T06:05:33.114Z,4.60
2018-07-16T06:06:33.139Z,4.10
2018-07-16T06:07:33.146Z,4.00
2018-07-16T06:08:33.151Z,4.00
2018-07-16T06:09:33.167Z,3.90
2018-07-16T06:10:33.176Z,3.60
2018-07-16T06:11:33.189Z,3.80
2018-07-16T06:12:33.206Z,3.90
2018-07-16T06:13:33.217Z,2.90
2018-07-16T06:14:33.247Z,3.30
2018-07-16T06:15:33.246Z,3.60
2018-07-16T06:16:33.251Z,3.80
2018-07-16T06:17:33.265Z,3.70
2018-07-16T06:18:33.275Z,3.50
2018-07-16T06:19:33.286Z,4.00
2018-07-16T06:20:33.314Z,3.90
2018-07-16T06:21:33.316Z,4.20
2018-07-16T06:22:33.331Z,3.60
2018-07-16T06:23:33.343Z,4.10
2018-07-16T06:24:33.350Z,3.40
2018-07-16T06:25:33.371Z,3.10
2018-07-16T06:26:33.386Z,3.30
2018-07-16T06:27:33.396Z,3.50
2018-07-16T06:28:33.402Z,3.70
2018-07-16T06:29:33.412Z,3.30
2018-07-16T06:30:33.427Z,3.10
2018-07-16T06:31:33.466Z,3.20
2018-07-16T06:32:33.547Z,3.10
2018-07-16T06:33:33.517Z,3.70
2018-07-16T06:34:33.522Z,2.80
2018-07-16T06:35:33.499Z,2.60
2018-07-16T06:36:33.510Z,2.70
2018-07-16T06:37:33.532Z,3.10
2018-07-16T06:38:33.547Z,2.80
2018-07-16T06:39:33.581Z,2.70
2018-07-16T06:40:33.753Z,2.50
2018-07-16T06:41:33.881Z,2.80
2018-07-16T06:42:33.600Z,2.80
2018-07-16T06:43:33.619Z,2.80
2018-07-16T06:45:33.655Z,2.60
2018-07-16T06:46:33.668Z,2.40
2018-07-16T06:47:33.690Z,2.50
2018-07-16T06:48:33.697Z,2.70
2018-07-16T06:49:33.731Z,2.60
2018-07-16T06:50:33.731Z,3.60
2018-07-16T06:51:33.753Z,2.90
2018-07-16T06:52:33.770Z,3.40
2018-07-16T06:53:33.796Z,2.10
2018-07-16T06:54:33.800Z,2.10
2018-07-16T06:55:33.827Z,2.10
2018-07-16T06:56:33.846Z,1.90
2018-07-16T06:57:33.888Z,2.30
2018-07-16T06:58:33.872Z,1.80
2018-07-16T06:59:33.905Z,1.80
2018-07-16T07:00:33.910Z,1.70
2018-07-16T07:01:33.919Z,2.00
2018-07-16T07:02:34.233Z,2.00
2018-07-16T07:03:33.970Z,1.80
2018-07-16T07:04:33.972Z,1.70
2018-07-16T07:05:33.997Z,2.20
2018-07-16T07:06:34.009Z,2.30
2018-07-16T07:07:34.032Z,2.00
2018-07-16T07:08:34.052Z,1.90
2018-07-16T07:09:34.057Z,1.50
2018-07-16T07:10:34.083Z,2.20
2018-07-16T07:11:34.101Z,2.90
2018-07-16T07:12:34.124Z,1.80
2018-07-16T07:13:34.142Z,1.60
2018-07-16T07:14:34.156Z,1.70
2018-07-16T07:15:34.172Z,1.40
2018-07-16T07:16:34.187Z,1.40
2018-07-16T07:17:34.211Z,1.50
2018-07-16T07:18:34.224Z,1.90
2018-07-16T07:19:34.239Z,1.20
2018-07-16T07:20:34.256Z,1.20
2018-07-16T07:21:34.275Z,1.30
2018-07-16T07:22:34.301Z,1.40
2018-07-16T07:23:34.326Z,1.30
2018-07-16T07:24:34.335Z,1.50
2018-07-16T07:25:34.417Z,1.20
2018-07-16T07:26:34.364Z,1.20
2018-07-16T07:27:34.393Z,1.20
2018-07-16T07:28:34.403Z,1.50
2018-07-16T07:29:34.421Z,1.30
2018-07-16T07:30:34.438Z,1.30
2018-07-16T07:31:34.460Z,1.30
2018-07-16T07:32:34.481Z,1.20
2018-07-16T07:33:34.495Z,1.40
2018-07-16T07:34:34.521Z,1.60
2018-07-16T07:35:34.566Z,1.30
2018-07-16T07:36:34.555Z,1.40
2018-07-16T07:37:34.569Z,1.30
2018-07-16T07:38:34.590Z,1.40
2018-07-16T07:39:34.603Z,1.50
2018-07-16T07:40:34.637Z,1.40
2018-07-16T07:41:34.643Z,1.70
2018-07-16T07:42:34.661Z,1.50
2018-07-16T07:43:34.676Z,1.50
2018-07-16T07:44:34.697Z,1.60
2018-07-16T07:45:34.710Z,1.50
2018-07-16T07:46:34.745Z,1.30
2018-07-16T07:47:34.781Z,1.80
2018-07-16T07:48:34.780Z,1.60
2018-07-16T07:49:34.798Z,1.30
2018-07-16T07:50:34.805Z,1.30
2018-07-16T07:51:34.829Z,1.50
2018-07-16T07:52:34.850Z,1.20
2018-07-16T07:53:34.865Z,1.00
2018-07-16T07:54:35.163Z,1.10
2018-07-16T07:55:34.929Z,1.10
2018-07-16T07:56:34.916Z,1.70
2018-07-16T07:57:34.941Z,1.40
2018-07-16T07:58:35.130Z,1.40
2018-07-16T07:59:34.986Z,1.80
2018-07-16T08:00:35.092Z,1.50
2018-07-16T08:01:35.149Z,1.20
2018-07-16T08:02:35.230Z,1.20
2018-07-16T08:03:35.256Z,1.20
2018-07-16T08:04:35.073Z,1.30
2018-07-16T08:05:35.180Z,1.50
2018-07-16T08:06:35.219Z,1.70
2018-07-16T08:07:35.293Z,1.40
2018-07-16T08:08:35.324Z,1.30
2018-07-16T08:09:35.378Z,1.40
2018-07-16T08:10:35.191Z,1.00
2018-07-16T08:11:35.204Z,1.50
2018-07-16T08:12:35.232Z,1.10
2018-07-16T08:13:35.250Z,1.40
2018-07-16T08:14:35.269Z,1.20
2018-07-16T08:15:35.290Z,1.00
2018-07-16T08:16:35.316Z,1.60
2018-07-16T08:17:35.325Z,1.50
2018-07-16T08:18:35.344Z,1.10
2018-07-16T08:19:35.367Z,0.90
2018-07-16T08:20:35.386Z,1.30
2018-07-16T08:21:35.401Z,1.20
2018-07-16T08:22:35.423Z,1.40
2018-07-16T08:23:35.436Z,1.10
2018-07-16T08:24:35.466Z,1.20
2018-07-16T08:25:35.484Z,1.20
2018-07-16T08:26:35.505Z,1.20
2018-07-16T08:27:35.518Z,0.90
2018-07-16T08:28:35.546Z,1.40
2018-07-16T08:29:35.559Z,1.40
2018-07-16T08:30:35.591Z,1.10
2018-07-16T08:31:35.593Z,1.20
2018-07-16T08:32:35.626Z,1.50
2018-07-16T08:33:35.655Z,0.90
2018-07-16T08:34:35.660Z,1.10
2018-07-16T08:35:35.684Z,0.90
2018-07-16T08:36:35.704Z,1.20
2018-07-16T08:37:35.724Z,0.90
2018-07-16T08:38:35.761Z,1.00
2018-07-16T08:39:35.765Z,0.80
2018-07-16T08:40:35.790Z,1.10
2018-07-16T08:41:35.804Z,1.10
2018-07-16T08:42:35.826Z,0.90
2018-07-16T08:43:35.846Z,1.00
2018-07-16T08:44:35.869Z,0.90
2018-07-16T08:45:35.887Z,0.90
2018-07-16T08:46:35.910Z,0.70
2018-07-16T08:47:35.930Z,1.00
2018-07-16T08:48:35.969Z,1.00
2018-07-16T08:49:35.983Z,1.20
2018-07-16T08:50:35.997Z,0.90
2018-07-16T08:51:36.016Z,0.90
2018-07-16T08:52:36.101Z,0.80
2018-07-16T08:53:36.057Z,0.80
2018-07-16T08:54:36.073Z,0.90
2018-07-16T08:55:36.093Z,0.90
2018-07-16T08:56:36.117Z,1.00
2018-07-16T08:57:36.145Z,1.00
2018-07-16T08:58:36.156Z,1.00
2018-07-16T08:59:36.172Z,0.90
2018-07-16T09:00:36.211Z,0.80
2018-07-16T09:01:36.235Z,1.30
2018-07-16T09:02:36.244Z,0.80
2018-07-16T09:03:36.265Z,0.70
2018-07-16T09:04:36.281Z,0.70
2018-07-16T09:05:36.300Z,0.70
2018-07-16T09:06:36.337Z,0.80
2018-07-16T09:07:36.349Z,1.10
2018-07-16T09:08:36.384Z,1.50
2018-07-16T09:09:36.384Z,0.60
2018-07-16T09:10:36.407Z,0.70
2018-07-16T09:11:36.433Z,0.80
2018-07-16T09:12:36.450Z,0.90
2018-07-16T09:13:36.555Z,0.80
2018-07-16T09:14:36.488Z,1.00
2018-07-16T09:15:36.532Z,0.70
2018-07-16T09:16:36.540Z,0.60
2018-07-16T09:17:36.549Z,0.70
2018-07-16T09:18:36.566Z,0.90
2018-07-16T09:19:36.592Z,0.70
2018-07-16T09:20:36.630Z,0.70
2018-07-16T09:21:36.634Z,1.20
2018-07-16T09:22:36.674Z,0.70
2018-07-16T09:23:36.683Z,0.90
2018-07-16T09:24:36.691Z,1.20
2018-07-16T09:25:36.757Z,1.90
2018-07-16T09:26:36.753Z,0.80
2018-07-16T09:27:36.782Z,0.90
2018-07-16T09:28:36.783Z,0.70
2018-07-16T09:29:36.816Z,0.60
2018-07-16T09:30:36.827Z,0.80
2018-07-16T09:31:36.848Z,0.70
2018-07-16T09:32:36.900Z,0.60
2018-07-16T09:33:36.892Z,0.70
2018-07-16T09:34:36.922Z,0.90
2018-07-16T09:35:36.937Z,0.80
2018-07-16T09:36:36.966Z,0.70
2018-07-16T09:37:36.983Z,0.70
2018-07-16T09:38:37.009Z,0.60
2018-07-16T09:39:37.020Z,0.70
2018-07-16T09:40:37.037Z,0.80
2018-07-16T09:41:37.065Z,0.80
2018-07-16T09:42:37.084Z,0.60
2018-07-16T09:43:37.154Z,0.60
2018-07-16T09:44:37.128Z,0.70
2018-07-16T09:45:37.154Z,0.80
2018-07-16T09:46:37.187Z,0.70
2018-07-16T09:47:37.190Z,0.60
2018-07-16T09:48:37.216Z,0.70
2018-07-16T09:49:37.230Z,1.00
2018-07-16T09:50:37.252Z,0.60
2018-07-16T09:51:37.284Z,0.60
2018-07-16T09:52:37.300Z,0.70
2018-07-16T09:53:37.328Z,0.70
2018-07-16T09:54:37.346Z,0.60
2018-07-16T09:55:37.379Z,0.60
2018-07-16T09:56:37.387Z,0.80
2018-07-16T09:57:37.406Z,1.30
2018-07-16T09:58:37.436Z,1.00
2018-07-16T09:59:37.457Z,0.70
2018-07-16T10:00:37.481Z,0.90
2018-07-16T10:01:37.502Z,0.70
2018-07-16T10:02:37.521Z,0.80
2018-07-16T10:03:37.540Z,0.60
2018-07-16T10:04:37.571Z,0.60
2018-07-16T10:05:37.597Z,0.70
2018-07-16T10:06:37.616Z,0.80
2018-07-16T10:07:37.647Z,0.70
2018-07-16T10:08:37.654Z,0.60
2018-07-16T10:09:37.674Z,0.60
2018-07-16T10:10:37.700Z,0.50
2018-07-16T10:11:37.718Z,0.90
2018-07-16T10:12:37.745Z,0.60
2018-07-16T10:13:37.781Z,0.60
2018-07-16T10:14:37.788Z,0.50
2018-07-16T10:15:37.810Z,0.40
2018-07-16T10:16:37.835Z,0.60
2018-07-16T10:17:37.859Z,0.40
2018-07-16T10:18:37.888Z,0.60
2018-07-16T10:19:37.903Z,0.70
2018-07-16T10:20:37.979Z,0.50
2018-07-16T10:21:37.942Z,0.70
2018-07-16T10:22:37.963Z,0.80
2018-07-16T10:23:37.992Z,0.60
2018-07-16T10:24:38.013Z,0.50
2018-07-16T10:25:38.043Z,0.50
2018-07-16T10:26:38.061Z,0.50
2018-07-16T10:27:38.076Z,0.60
2018-07-16T10:28:38.099Z,0.70
2018-07-16T10:29:38.125Z,0.50
2018-07-16T10:30:38.152Z,0.60
2018-07-16T10:31:38.167Z,0.60
2018-07-16T10:32:38.192Z,0.50
2018-07-16T10:33:38.229Z,0.50
2018-07-16T10:34:38.236Z,0.40
2018-07-16T10:35:38.262Z,0.40
2018-07-16T10:36:38.282Z,0.50
2018-07-16T10:37:38.302Z,0.70
2018-07-16T10:38:38.324Z,0.50
2018-07-16T10:39:38.364Z,0.50
2018-07-16T10:40:38.369Z,0.50
2018-07-16T10:41:38.390Z,0.40
2018-07-16T10:42:38.413Z,0.50
2018-07-16T10:43:38.521Z,0.50
2018-07-16T10:44:38.497Z,0.60
2018-07-16T10:45:38.482Z,0.40
2018-07-16T10:46:38.505Z,0.60
2018-07-16T10:47:38.529Z,0.60
2018-07-16T10:48:38.553Z,0.50
2018-07-16T10:49:38.601Z,0.50
2018-07-16T10:50:38.593Z,1.50
2018-07-16T10:51:38.615Z,0.60
2018-07-16T10:52:38.642Z,0.90
2018-07-16T10:53:38.667Z,0.80
2018-07-16T10:54:38.690Z,0.90
2018-07-16T10:55:38.710Z,0.80
2018-07-16T10:56:38.744Z,1.70
2018-07-16T10:57:38.753Z,0.50
2018-07-16T10:58:38.874Z,0.50
2018-07-16T10:59:38.799Z,0.50
2018-07-16T11:00:38.831Z,0.50
2018-07-16T11:01:38.848Z,0.60
2018-07-16T11:02:38.861Z,0.50
2018-07-16T11:03:38.905Z,1.20
2018-07-16T11:04:38.914Z,0.90
2018-07-16T11:05:38.945Z,0.80
2018-07-16T11:06:38.965Z,0.70
2018-07-16T11:07:38.988Z,0.50
2018-07-16T11:08:39.021Z,0.50
2018-07-16T11:09:39.032Z,0.50
2018-07-16T11:10:39.060Z,0.50
2018-07-16T11:11:39.089Z,0.70
2018-07-16T11:12:39.101Z,0.50
2018-07-16T11:13:39.131Z,0.50
2018-07-16T11:14:39.146Z,0.50
2018-07-16T11:15:39.184Z,0.50
2018-07-16T11:16:39.197Z,0.60
2018-07-16T11:17:39.215Z,0.60
2018-07-16T11:18:39.245Z,0.70
2018-07-16T11:19:39.276Z,0.50
2018-07-16T11:20:39.289Z,0.50
2018-07-16T11:21:39.322Z,0.50
2018-07-16T11:22:39.335Z,0.60
2018-07-16T11:23:39.354Z,0.50
2018-07-16T11:24:39.383Z,0.50
2018-07-16T11:25:39.414Z,0.50
2018-07-16T11:26:39.428Z,0.70
2018-07-16T11:27:39.449Z,0.60
2018-07-16T11:28:39.471Z,0.60
2018-07-16T11:29:39.495Z,0.70
2018-07-16T11:30:39.521Z,0.50
2018-07-16T11:31:39.545Z,0.50
2018-07-16T11:32:39.568Z,0.50
2018-07-16T11:33:39.593Z,0.40
2018-07-16T11:34:39.625Z,0.50
2018-07-16T11:35:39.668Z,0.60
2018-07-16T11:36:39.657Z,0.60
2018-07-16T11:37:39.673Z,0.50
2018-07-16T11:38:39.706Z,0.60
2018-07-16T11:39:39.729Z,0.50
2018-07-16T11:40:39.763Z,0.50
2018-07-16T11:41:39.789Z,0.40
2018-07-16T11:42:39.792Z,0.50
2018-07-16T11:43:39.818Z,0.60
2018-07-16T11:44:39.847Z,0.40
2018-07-16T11:45:39.867Z,0.40
2018-07-16T11:46:39.893Z,0.40
2018-07-16T11:47:39.917Z,0.40
2018-07-16T11:48:39.933Z,0.40
2018-07-16T11:49:40.013Z,0.50
2018-07-16T11:50:39.983Z,0.40
2018-07-16T11:51:40.003Z,1.30
2018-07-16T11:52:40.021Z,0.50
2018-07-16T11:53:40.054Z,0.50
2018-07-16T11:54:40.080Z,0.60
2018-07-16T11:55:40.098Z,0.40
2018-07-16T11:56:40.126Z,0.80
2018-07-16T11:57:40.145Z,0.50
2018-07-16T11:58:40.160Z,0.50
2018-07-16T11:59:40.184Z,0.50
2018-07-16T12:00:40.207Z,0.50
2018-07-16T12:01:40.231Z,0.50
2018-07-16T12:02:40.276Z,0.50
2018-07-16T12:03:40.287Z,0.50
2018-07-16T12:04:40.314Z,0.60
2018-07-16T12:05:40.325Z,0.50
2018-07-16T12:06:40.357Z,0.40
2018-07-16T12:07:40.381Z,0.40
2018-07-16T12:08:40.396Z,0.50
2018-07-16T12:09:40.421Z,0.50
2018-07-16T12:10:40.447Z,0.40
2018-07-16T12:11:40.462Z,0.50
2018-07-16T12:12:40.613Z,0.40
2018-07-16T12:13:40.533Z,0.60
2018-07-16T12:14:40.541Z,0.50
2018-07-16T12:15:40.566Z,0.50
2018-07-16T12:16:40.581Z,0.50
2018-07-16T12:17:40.622Z,0.40
2018-07-16T12:18:40.632Z,0.40
2018-07-16T12:19:40.652Z,0.40
2018-07-16T12:20:40.675Z,0.50
2018-07-16T12:21:40.711Z,0.50
2018-07-16T12:22:40.720Z,0.40
2018-07-16T12:23:40.757Z,0.50
2018-07-16T12:24:40.771Z,0.50
2018-07-16T12:25:40.794Z,0.70
2018-07-16T12:26:40.817Z,0.50
2018-07-16T12:27:40.837Z,1.10
2018-07-16T12:28:40.860Z,0.70
2018-07-16T12:29:40.891Z,0.90
2018-07-16T12:30:40.909Z,0.90
2018-07-16T12:31:40.936Z,0.80
2018-07-16T12:32:40.996Z,0.60
2018-07-16T12:33:40.980Z,0.50
2018-07-16T12:34:41.001Z,1.10
2018-07-16T12:35:41.026Z,1.40
2018-07-16T12:36:41.057Z,0.50
2018-07-16T12:37:41.105Z,0.60
2018-07-16T12:38:41.102Z,0.40
2018-07-16T12:39:41.117Z,2.00
2018-07-16T12:40:41.149Z,0.60
2018-07-16T12:41:41.238Z,1.00
2018-07-16T12:42:41.189Z,0.60
2018-07-16T12:43:41.219Z,0.50
2018-07-16T12:44:41.238Z,0.50
2018-07-16T12:45:41.262Z,0.50
2018-07-16T12:46:41.291Z,0.60
2018-07-16T12:47:41.306Z,0.40
2018-07-16T12:49:41.362Z,0.60
2018-07-16T12:50:41.384Z,0.60
2018-07-16T12:51:41.432Z,0.60
2018-07-16T12:52:41.438Z,0.70
2018-07-16T12:53:41.445Z,0.50
2018-07-16T12:54:41.483Z,0.60
2018-07-16T12:55:41.507Z,0.60
2018-07-16T12:57:41.540Z,0.60
2018-07-16T12:58:41.579Z,0.60
2018-07-16T12:59:41.608Z,0.50
2018-07-16T13:00:41.624Z,0.50
2018-07-16T13:01:41.654Z,0.50
2018-07-16T13:02:41.673Z,0.40
2018-07-16T13:03:41.695Z,0.50
2018-07-16T13:04:41.723Z,0.40
2018-07-16T13:05:41.752Z,0.40
2018-07-16T13:06:41.770Z,0.40
2018-07-16T13:07:41.799Z,0.50
2018-07-16T13:08:41.817Z,0.40
2018-07-16T13:09:41.836Z,0.40
2018-07-16T13:10:41.864Z,0.50
2018-07-16T13:11:41.901Z,0.40
2018-07-16T13:13:41.948Z,0.50
2018-07-16T13:14:41.974Z,0.50
2018-07-16T13:15:41.993Z,0.50
2018-07-16T13:16:42.013Z,0.70
2018-07-16T13:17:42.049Z,0.70
2018-07-16T13:18:42.059Z,0.50
2018-07-16T13:19:42.097Z,0.50
2018-07-16T13:20:42.095Z,0.40
2018-07-16T13:21:42.151Z,0.50
2018-07-16T13:22:42.160Z,0.50
2018-07-16T13:23:42.188Z,0.50
2018-07-16T13:24:42.214Z,0.70
2018-07-16T13:25:42.232Z,0.60